Vernon, TX

7:45 PM CDT on August 22, 2014 (GMT -0500)
Turner Home | Change Station
CLOSE
Current Station
Personal Weather Station
Location: Odell, TX
Elevation: 1347 ft
Nearby Weather Stations

Elev 1347 ft 34.34 °N, 99.42 °W | Updated 8 seconds ago

Clear
Clear
98.6 °F
Feels Like 96 °F
N
12.0
Wind Variable Wind from South
Gusts 19.0 mph

Today
High -- | Low -- °F
--% Chance of Precip.
Yesterday
High -- | Low -- °F
Precip. -- in
7:03 AM 8:16 PM
Waning Crescent, 6% visible
Pressure 29.88 in
Visibility 10.0 miles
Clouds Clear
Heat Index 96 °F
Dew Point 51 °F
Humidity 20%
Rainfall 0.00 in
Snow Depth Not available.
UV 0 out of 12
Pollen 9.40 out of 12
Air Quality Not available.
Flu Activity Not available.
METAR KF05 230035Z AUTO 18010KT 10SM CLR 38/06 A2988 RMK AO1 T03800056

More Conditions Fewer Conditions

Pressure 29.88 in
Visibility 10.0 miles
Clouds Clear
Heat Index 96 °F
Dew Point 51 °F
Humidity 20%
Rainfall 0.00 in
Snow Depth Not available.
UV 0 out of 12
Pollen 9.40 out of 12
Air Quality Not available.
Flu Activity Not available.
METAR KF05 230035Z AUTO 18010KT 10SM CLR 38/06 A2988 RMK AO1 T03800056

More Conditions Fewer Conditions

10-Day Weather Forecast

Almanac

Astronomy

Aug. 22, 2014 Rise Set
Actual Time 7:03 AM CDT 8:16 PM CDT
Civil Twilight 6:37 AM CDT 8:42 PM CDT
Nautical Twilight 6:06 AM CDT 9:13 PM CDT
Astronomical Twilight 5:34 AM CDT 9:46 PM CDT
Moon 4:31 AM CDT (8/22) 6:23 PM CDT (8/22)
Length of Visible Light 14h 05m
Length of Day
13h 12m
Tomorrow will be 1m 58s shorter.
Waning Crescent, 6% of the Moon is Illuminated
Today
Waning Crescent
Aug 25
New
Sep 2
First Quarter
Sep 8
Full
Sep 15
Last Quarter

Today's Extremes

State Highs State Lows

Community

WunderPhotos

Upload Photos

1,746,326 photos uploaded!

WunderBlogs® & News

Nearby

Snow Depth

Station Depth Elevation
No new snow has been reported.

Earthquake Activity

City Distance Mag. Time & Date
No recent earthquake activity has been reported nearby.
Minimum magnitude displayed is 2.5.

Coastal Water Temperatures

Place Temperature
No Stations Reporting

Nearby Weather Stations